Time;durP1;ratioP1;P1;durP2;ratioP2;P2;SDS_P1;SDS_P2;PMS_P1;PMS_P2;Temp;Humidity;BMP_temperature;BMP_pressure;BME280_temperature;BME280_humidity;BME280_pressure;Samples;Min_cycle;Max_cycle;Signal;HPM_P1;HPM_P2
2023/12/07 00:01:18;;;;;;;25.15;19.13;;;3.00;99.90;;;;;;4937585;28;20050;-67
2023/12/07 00:03:44;;;;;;;22.00;19.77;;;2.80;99.90;;;;;;4952962;28;20043;-66
2023/12/07 00:06:10;;;;;;;21.58;19.38;;;2.90;99.90;;;;;;4952681;28;20106;-67
2023/12/07 00:08:35;;;;;;;21.27;19.02;;;2.80;99.90;;;;;;4952417;28;20056;-66
2023/12/07 00:11:01;;;;;;;22.13;19.75;;;3.00;99.90;;;;;;4953484;28;20078;-66
2023/12/07 00:13:27;;;;;;;20.80;18.60;;;2.80;99.90;;;;;;4952518;28;20066;-67
2023/12/07 00:15:53;;;;;;;22.58;19.20;;;3.00;99.90;;;;;;4937510;28;20843;-66
2023/12/07 00:18:19;;;;;;;21.42;18.30;;;2.80;99.90;;;;;;4936747;28;20137;-66
2023/12/07 00:20:45;;;;;;;20.73;18.30;;;2.90;99.90;;;;;;4923166;28;20121;-66
2023/12/07 00:23:11;;;;;;;20.35;18.25;;;2.80;99.90;;;;;;4953024;28;20049;-66
2023/12/07 00:25:36;;;;;;;19.98;17.80;;;2.90;99.90;;;;;;4952855;28;20497;-66
2023/12/07 00:28:03;;;;;;;21.35;19.10;;;2.90;99.90;;;;;;4952632;28;20311;-67
2023/12/07 00:30:29;;;;;;;20.67;17.90;;;2.90;99.90;;;;;;4952983;28;20214;-66
2023/12/07 00:32:55;;;;;;;19.20;17.20;;;3.00;99.90;;;;;;4952367;28;20046;-67
2023/12/07 00:35:22;;;;;;;20.13;18.02;;;3.00;99.90;;;;;;4935277;28;20505;-66
2023/12/07 00:37:48;;;;;;;20.52;18.13;;;3.00;99.90;;;;;;4951931;28;20148;-67
2023/12/07 00:40:14;;;;;;;20.83;16.90;;;3.00;99.90;;;;;;4936015;28;20352;-67
2023/12/07 00:42:40;;;;;;;22.52;18.40;;;2.90;99.90;;;;;;4951795;28;20438;-67
2023/12/07 00:45:06;;;;;;;23.92;18.10;;;2.80;99.90;;;;;;4952835;28;20302;-67
2023/12/07 00:47:32;;;;;;;20.77;17.80;;;2.90;99.90;;;;;;4952652;28;20547;-66
2023/12/07 00:49:57;;;;;;;20.80;18.60;;;2.70;99.90;;;;;;4935750;28;20414;-67
2023/12/07 00:52:23;;;;;;;19.60;17.60;;;2.90;99.90;;;;;;4951190;28;20046;-67
2023/12/07 00:54:48;;;;;;;19.75;16.70;;;2.80;99.90;;;;;;4951892;28;20043;-68
2023/12/07 00:57:14;;;;;;;21.10;17.35;;;2.90;99.90;;;;;;4984305;28;20603;-66
2023/12/07 00:59:40;;;;;;;19.80;17.60;;;2.90;99.90;;;;;;4952332;28;20130;-67
2023/12/07 01:02:06;;;;;;;20.50;16.30;;;2.80;99.90;;;;;;4936289;28;20337;-66
2023/12/07 01:04:33;;;;;;;20.50;16.40;;;2.80;99.90;;;;;;4935643;28;20504;-67
2023/12/07 01:06:59;;;;;;;22.48;17.73;;;2.70;99.90;;;;;;4951716;28;20753;-67
2023/12/07 01:09:25;;;;;;;18.42;16.50;;;2.80;99.90;;;;;;4949712;28;20141;-67
2023/12/07 01:11:51;;;;;;;20.27;17.35;;;2.80;99.90;;;;;;4935270;28;20050;-67
2023/12/07 01:14:18;;;;;;;21.23;17.40;;;2.60;99.90;;;;;;4935887;28;20116;-66
2023/12/07 01:16:44;;;;;;;17.92;15.98;;;2.80;99.90;;;;;;4952088;28;20639;-66
2023/12/07 01:19:14;;;;;;;17.33;15.52;;;2.80;99.90;;;;;;4951874;28;20488;-67
2023/12/07 01:21:41;;;;;;;19.30;16.92;;;2.60;99.90;;;;;;4951253;28;20053;-67
2023/12/07 01:24:10;;;;;;;19.70;17.50;;;2.60;99.90;;;;;;4951986;28;20051;-68
2023/12/07 01:26:35;;;;;;;19.08;16.95;;;2.80;99.90;;;;;;4927779;28;20046;-67
2023/12/07 01:29:02;;;;;;;20.30;16.88;;;2.60;99.90;;;;;;4920216;28;20129;-68
2023/12/07 01:31:28;;;;;;;19.25;16.25;;;2.70;99.90;;;;;;4951887;28;20537;-66
2023/12/07 01:33:54;;;;;;;18.50;16.48;;;2.70;99.90;;;;;;4951176;28;20053;-66
2023/12/07 01:36:20;;;;;;;21.33;17.45;;;2.80;99.90;;;;;;4935488;28;20039;-67
2023/12/07 01:38:46;;;;;;;20.50;16.85;;;2.80;99.90;;;;;;4918936;28;20043;-68
2023/12/07 01:41:12;;;;;;;18.15;15.90;;;2.90;99.90;;;;;;4935880;28;20051;-67
2023/12/07 01:43:44;;;;;;;19.80;16.60;;;2.90;99.90;;;;;;4952003;28;20077;-67
2023/12/07 01:46:10;;;;;;;17.55;15.63;;;3.00;99.90;;;;;;4936102;28;20061;-67
2023/12/07 01:48:39;;;;;;;18.23;16.30;;;2.90;99.90;;;;;;4951230;28;20047;-66
2023/12/07 01:51:06;;;;;;;18.02;16.20;;;3.00;99.90;;;;;;4935246;28;20489;-66
2023/12/07 01:53:32;;;;;;;19.08;16.88;;;3.00;99.90;;;;;;4935734;28;20031;-66
2023/12/07 01:55:58;;;;;;;19.75;17.67;;;2.90;99.90;;;;;;4951663;28;20047;-67
2023/12/07 01:58:24;;;;;;;18.27;15.95;;;2.90;99.90;;;;;;4951875;28;20042;-67
2023/12/07 02:00:50;;;;;;;19.02;17.02;;;2.90;99.90;;;;;;4950990;28;20046;-67
2023/12/07 02:03:17;;;;;;;18.67;16.63;;;2.90;99.90;;;;;;4951535;28;20043;-66
2023/12/07 02:05:48;;;;;;;18.10;16.20;;;3.00;99.90;;;;;;4937137;28;20101;-67
2023/12/07 02:08:14;;;;;;;17.25;15.18;;;3.00;99.90;;;;;;4951117;28;20046;-67
2023/12/07 02:10:40;;;;;;;18.75;16.75;;;3.00;99.90;;;;;;4951102;28;20109;-67
2023/12/07 02:13:07;;;;;;;17.83;15.70;;;3.00;99.90;;;;;;4950898;28;20063;-66
2023/12/07 02:15:33;;;;;;;19.25;17.02;;;2.80;99.90;;;;;;4951144;28;20057;-67
2023/12/07 02:18:13;;;;;;;18.98;15.18;;;3.00;99.90;;;;;;4927573;28;20039;-67
2023/12/07 02:21:21;;;;;;;18.98;16.45;;;2.90;99.90;;;;;;4936175;28;20053;-67
2023/12/07 02:23:51;;;;;;;17.77;15.90;;;3.00;99.90;;;;;;4953811;28;20054;-66
2023/12/07 02:26:19;;;;;;;18.65;16.70;;;2.90;99.90;;;;;;4954969;28;20046;-67
2023/12/07 02:28:45;;;;;;;19.75;16.27;;;3.00;99.90;;;;;;4938886;28;20039;-66
2023/12/07 02:31:11;;;;;;;18.50;16.55;;;2.90;99.90;;;;;;4925513;28;20070;-67
2023/12/07 02:33:36;;;;;;;18.83;16.83;;;3.00;99.90;;;;;;4954993;28;20116;-66
2023/12/07 02:36:02;;;;;;;18.77;16.83;;;2.80;99.90;;;;;;4957413;28;20047;-67
2023/12/07 02:38:28;;;;;;;19.40;16.85;;;2.80;99.90;;;;;;4954768;28;20243;-66
2023/12/07 02:40:55;;;;;;;19.77;16.67;;;2.80;99.90;;;;;;4939299;28;20053;-67
2023/12/07 02:43:22;;;;;;;20.33;16.83;;;2.90;99.90;;;;;;4956127;28;20548;-66
2023/12/07 02:45:48;;;;;;;20.50;17.10;;;2.90;99.90;;;;;;4955584;28;20378;-67
2023/12/07 02:48:14;;;;;;;18.70;16.35;;;2.80;99.90;;;;;;4954328;28;20134;-66
2023/12/07 02:50:39;;;;;;;18.77;16.30;;;2.80;99.90;;;;;;4954570;28;20047;-66
2023/12/07 02:53:05;;;;;;;18.65;16.05;;;2.90;99.90;;;;;;4954607;28;20217;-66
2023/12/07 02:55:31;;;;;;;19.02;16.63;;;2.80;99.90;;;;;;4939655;28;20063;-67
2023/12/07 02:57:57;;;;;;;17.73;15.38;;;2.80;99.90;;;;;;4954873;28;20143;-66
2023/12/07 03:00:22;;;;;;;20.38;17.27;;;2.90;99.90;;;;;;4938628;28;20398;-66
2023/12/07 03:02:50;;;;;;;19.13;16.95;;;2.90;99.90;;;;;;4955076;28;20446;-67
2023/12/07 03:05:16;;;;;;;20.33;16.88;;;2.80;99.90;;;;;;4954913;28;20055;-66
2023/12/07 03:07:41;;;;;;;19.27;17.02;;;2.80;99.90;;;;;;4954315;28;20053;-66
2023/12/07 03:10:07;;;;;;;17.38;15.45;;;2.80;99.90;;;;;;4938324;28;20061;-66
2023/12/07 03:12:33;;;;;;;19.13;16.63;;;2.70;99.90;;;;;;4937607;28;20069;-67
2023/12/07 03:14:59;;;;;;;17.55;15.75;;;2.80;99.90;;;;;;4953819;28;20070;-66
2023/12/07 03:17:24;;;;;;;17.52;15.73;;;2.70;99.90;;;;;;4954099;28;20640;-70
2023/12/07 03:19:50;;;;;;;19.10;16.25;;;2.70;99.90;;;;;;4921749;28;20061;-66
2023/12/07 03:22:16;;;;;;;19.23;16.83;;;2.80;99.90;;;;;;4954188;28;20328;-66
2023/12/07 03:24:47;;;;;;;17.63;15.82;;;2.80;99.90;;;;;;4953957;28;20137;-67
2023/12/07 03:27:13;;;;;;;19.15;15.70;;;2.90;99.90;;;;;;4954729;28;20125;-66
2023/12/07 03:29:38;;;;;;;19.33;16.13;;;2.80;99.90;;;;;;4954450;28;20478;-66
2023/12/07 03:32:05;;;;;;;18.67;15.95;;;2.70;99.90;;;;;;4952933;28;20054;-66
2023/12/07 03:34:30;;;;;;;18.23;16.33;;;2.90;99.90;;;;;;4937696;28;20108;-66
2023/12/07 03:36:56;;;;;;;17.45;15.73;;;2.90;99.90;;;;;;4953735;28;20038;-66
2023/12/07 03:39:22;;;;;;;19.85;16.15;;;2.80;99.90;;;;;;4937712;28;20134;-67
2023/12/07 03:41:49;;;;;;;19.23;15.88;;;2.90;99.90;;;;;;4955292;28;20545;-67
2023/12/07 03:44:15;;;;;;;18.88;16.23;;;2.90;99.90;;;;;;4954271;28;20503;-69
2023/12/07 03:46:41;;;;;;;18.20;16.30;;;2.90;99.90;;;;;;4954562;28;20078;-66
2023/12/07 03:49:06;;;;;;;19.02;16.20;;;2.70;99.90;;;;;;4954440;28;20105;-66
2023/12/07 03:51:32;;;;;;;18.23;16.30;;;2.90;99.90;;;;;;4953828;28;20057;-67
2023/12/07 03:53:58;;;;;;;17.88;15.93;;;2.80;99.90;;;;;;4938346;28;20158;-66
2023/12/07 03:56:25;;;;;;;20.02;15.82;;;2.90;99.90;;;;;;4954086;28;20180;-67
2023/12/07 03:58:50;;;;;;;19.30;16.52;;;2.90;99.90;;;;;;4938242;28;20521;-66
2023/12/07 04:01:16;;;;;;;19.73;15.60;;;2.80;99.90;;;;;;4953951;28;20082;-67
2023/12/07 04:03:42;;;;;;;19.05;15.50;;;2.70;99.90;;;;;;4937661;28;20286;-67
2023/12/07 04:06:08;;;;;;;20.55;15.77;;;2.90;99.90;;;;;;4953481;28;20441;-67
2023/12/07 04:08:34;;;;;;;18.67;16.70;;;2.70;99.90;;;;;;4936671;28;20093;-67
2023/12/07 04:11:00;;;;;;;18.13;16.23;;;2.80;99.90;;;;;;4938016;28;20137;-66
2023/12/07 04:13:26;;;;;;;17.95;16.15;;;2.80;99.90;;;;;;4937531;28;20050;-67
2023/12/07 04:15:51;;;;;;;20.08;17.55;;;2.90;99.90;;;;;;4938020;28;20097;-67
2023/12/07 04:18:17;;;;;;;18.13;14.45;;;2.80;99.90;;;;;;4952842;28;20066;-67
2023/12/07 04:20:43;;;;;;;17.67;15.07;;;2.80;99.90;;;;;;4936749;28;20039;-67
2023/12/07 04:23:09;;;;;;;20.85;16.65;;;2.70;99.90;;;;;;4921527;28;20285;-68
2023/12/07 04:25:34;;;;;;;19.17;17.17;;;2.80;99.90;;;;;;4937583;28;20698;-67
2023/12/07 04:28:00;;;;;;;21.65;16.15;;;2.80;99.90;;;;;;4937749;28;20309;-67
2023/12/07 04:30:26;;;;;;;18.25;16.15;;;2.60;99.90;;;;;;4952692;28;20042;-67
2023/12/07 04:32:51;;;;;;;19.25;16.30;;;2.70;99.90;;;;;;4953279;28;20042;-67
2023/12/07 04:35:17;;;;;;;18.45;16.45;;;2.90;99.90;;;;;;4920935;28;20039;-68
2023/12/07 04:37:43;;;;;;;20.95;16.27;;;2.60;99.90;;;;;;4937262;28;20050;-67
2023/12/07 04:40:10;;;;;;;17.95;16.08;;;2.80;99.90;;;;;;4952715;28;20105;-66
2023/12/07 04:42:36;;;;;;;18.17;16.27;;;2.70;99.90;;;;;;4952483;28;20505;-67
2023/12/07 04:45:02;;;;;;;17.67;15.80;;;2.60;99.90;;;;;;4951863;28;20433;-66
2023/12/07 04:47:28;;;;;;;20.25;15.52;;;2.70;99.90;;;;;;4952743;28;20047;-67
2023/12/07 04:49:54;;;;;;;17.80;15.85;;;2.70;99.90;;;;;;4937279;28;20046;-67
2023/12/07 04:52:19;;;;;;;19.70;15.05;;;2.70;99.90;;;;;;4952141;28;20141;-67
2023/12/07 04:54:45;;;;;;;19.45;16.88;;;2.80;99.90;;;;;;4951901;28;20073;-67
2023/12/07 04:57:11;;;;;;;16.02;14.32;;;2.90;99.90;;;;;;4936774;28;20101;-67
2023/12/07 04:59:36;;;;;;;16.85;14.63;;;2.70;99.90;;;;;;4953148;28;20038;-67
2023/12/07 05:02:02;;;;;;;18.02;15.60;;;2.90;99.90;;;;;;4936779;28;20090;-67
2023/12/07 05:04:28;;;;;;;17.83;15.57;;;2.70;99.90;;;;;;4951790;28;20623;-67
2023/12/07 05:06:53;;;;;;;17.20;15.40;;;2.80;99.90;;;;;;4952246;28;20043;-66
2023/12/07 05:09:19;;;;;;;18.75;15.43;;;2.80;99.90;;;;;;4953188;28;20042;-67
2023/12/07 05:11:45;;;;;;;17.73;15.77;;;2.70;99.90;;;;;;4951592;28;20039;-67
2023/12/07 05:14:11;;;;;;;17.67;15.85;;;2.60;99.90;;;;;;4951965;28;20058;-67
2023/12/07 05:16:37;;;;;;;17.08;15.27;;;2.70;99.90;;;;;;4936309;28;20489;-67
2023/12/07 05:19:02;;;;;;;18.63;15.88;;;2.80;99.90;;;;;;4952371;28;20335;-66
2023/12/07 05:21:28;;;;;;;18.20;15.50;;;2.80;99.90;;;;;;4920585;28;20129;-67
2023/12/07 05:23:54;;;;;;;17.02;15.27;;;2.70;99.90;;;;;;4936148;28;20401;-67
2023/12/07 05:26:21;;;;;;;17.52;15.57;;;2.70;99.90;;;;;;4936907;28;20047;-67
2023/12/07 05:28:47;;;;;;;18.40;16.17;;;2.70;99.90;;;;;;4936717;28;20050;-66
2023/12/07 05:31:19;;;;;;;18.58;16.02;;;2.70;99.90;;;;;;4952143;28;20050;-67
2023/12/07 05:33:44;;;;;;;19.25;16.65;;;2.70;99.90;;;;;;4936369;28;20206;-67
2023/12/07 05:36:11;;;;;;;20.35;16.15;;;2.80;99.90;;;;;;4936126;28;20039;-67
2023/12/07 05:38:37;;;;;;;19.65;16.35;;;2.80;99.90;;;;;;4950531;28;20289;-66
2023/12/07 05:41:03;;;;;;;18.95;16.95;;;2.60;99.90;;;;;;4952738;28;20046;-67
2023/12/07 05:43:31;;;;;;;20.65;17.05;;;2.70;99.90;;;;;;4935913;28;20058;-67
2023/12/07 05:45:56;;;;;;;20.17;16.48;;;2.50;99.90;;;;;;4951584;28;20521;-67
2023/12/07 05:48:23;;;;;;;18.80;16.90;;;2.50;99.90;;;;;;4935429;28;20051;-67
2023/12/07 05:50:49;;;;;;;19.58;17.00;;;2.50;99.90;;;;;;4935617;28;20074;-67
2023/12/07 05:53:15;;;;;;;18.83;16.83;;;2.50;99.90;;;;;;4951752;28;20046;-66
2023/12/07 05:55:40;;;;;;;21.50;16.65;;;2.60;99.90;;;;;;4952925;28;20050;-66
2023/12/07 05:58:06;;;;;;;19.38;16.83;;;2.40;99.90;;;;;;4951753;28;20110;-66
2023/12/07 06:00:32;;;;;;;20.85;16.85;;;2.60;99.90;;;;;;4935884;28;20045;-67
2023/12/07 06:02:57;;;;;;;19.85;16.23;;;2.60;99.90;;;;;;4951706;28;20047;-66
2023/12/07 06:05:23;;;;;;;22.80;17.25;;;2.40;99.90;;;;;;4935440;28;20347;-66
2023/12/07 06:07:49;;;;;;;19.63;16.58;;;2.40;99.90;;;;;;4935697;28;20069;-66
2023/12/07 06:10:15;;;;;;;19.33;16.70;;;2.60;99.90;;;;;;4951924;28;20771;-67
2023/12/07 06:12:41;;;;;;;20.20;16.23;;;2.50;99.90;;;;;;4936115;28;20054;-67
2023/12/07 06:15:07;;;;;;;19.98;15.70;;;2.50;99.90;;;;;;4934835;28;20426;-66
2023/12/07 06:17:33;;;;;;;18.52;16.05;;;2.40;99.90;;;;;;4951374;28;20078;-67
2023/12/07 06:19:59;;;;;;;18.55;15.20;;;2.60;99.90;;;;;;4951002;28;20039;-66
2023/12/07 06:22:25;;;;;;;18.23;14.77;;;2.50;99.90;;;;;;4967181;28;20104;-66
2023/12/07 06:24:51;;;;;;;18.88;15.60;;;2.40;99.90;;;;;;4950548;28;20505;-67
2023/12/07 06:27:18;;;;;;;17.77;14.95;;;2.60;99.90;;;;;;4951138;28;20112;-66
2023/12/07 06:29:43;;;;;;;19.60;14.93;;;2.40;99.90;;;;;;4935849;28;20050;-66
2023/12/07 06:32:09;;;;;;;19.17;15.25;;;2.50;99.90;;;;;;4951327;28;20811;-66
2023/12/07 06:34:40;;;;;;;17.50;14.93;;;2.70;99.90;;;;;;4932380;28;20097;-66
2023/12/07 06:37:06;;;;;;;16.90;13.98;;;2.40;99.90;;;;;;4934700;28;20179;-66
2023/12/07 06:39:32;;;;;;;18.10;15.02;;;2.40;99.90;;;;;;4950027;28;20043;-67
2023/12/07 06:41:59;;;;;;;18.10;15.50;;;2.40;99.90;;;;;;4951048;28;20460;-66
2023/12/07 06:44:25;;;;;;;17.27;14.77;;;2.50;99.90;;;;;;4950926;28;20461;-67
2023/12/07 06:46:51;;;;;;;21.80;15.38;;;2.50;99.90;;;;;;4949810;28;20292;-67
2023/12/07 06:49:17;;;;;;;19.30;15.43;;;2.50;99.90;;;;;;4950280;28;20043;-66
2023/12/07 06:51:42;;;;;;;16.38;14.65;;;2.40;99.90;;;;;;4951411;28;20293;-67
2023/12/07 06:54:08;;;;;;;16.75;15.00;;;2.60;99.90;;;;;;4935153;28;20214;-67
2023/12/07 06:56:34;;;;;;;19.90;15.98;;;2.30;99.90;;;;;;4935183;28;20125;-66
2023/12/07 06:58:59;;;;;;;21.52;16.55;;;2.40;99.90;;;;;;4935220;28;20047;-67
2023/12/07 07:01:25;;;;;;;18.73;15.57;;;2.30;99.90;;;;;;4951573;28;20421;-66
2023/12/07 07:03:51;;;;;;;19.15;15.77;;;2.30;99.90;;;;;;4951339;28;20050;-66
2023/12/07 07:06:17;;;;;;;19.15;15.50;;;2.40;99.90;;;;;;4951760;28;20055;-68
2023/12/07 07:08:42;;;;;;;19.95;15.50;;;2.40;99.90;;;;;;4938306;28;20077;-68
2023/12/07 07:11:14;;;;;;;17.85;15.95;;;2.40;99.90;;;;;;4955250;28;20344;-67
2023/12/07 07:13:41;;;;;;;17.88;15.95;;;2.50;99.90;;;;;;4954750;28;20086;-66
2023/12/07 07:16:08;;;;;;;19.73;15.65;;;2.50;99.90;;;;;;4953747;28;20302;-67
2023/12/07 07:18:34;;;;;;;20.27;16.25;;;2.40;99.90;;;;;;4953540;28;20086;-66
2023/12/07 07:21:00;;;;;;;19.13;15.75;;;2.20;99.90;;;;;;4954747;28;20537;-67
2023/12/07 07:23:26;;;;;;;20.35;16.55;;;2.20;99.90;;;;;;4954501;28;20046;-67
2023/12/07 07:25:51;;;;;;;20.50;16.80;;;2.30;99.90;;;;;;4938784;28;20057;-67
2023/12/07 07:28:17;;;;;;;20.85;16.05;;;2.30;99.90;;;;;;4938732;28;20054;-66
2023/12/07 07:30:43;;;;;;;21.00;16.90;;;2.40;99.90;;;;;;4953964;28;20725;-66
2023/12/07 07:33:09;;;;;;;20.52;16.60;;;2.20;99.90;;;;;;4938177;28;20125;-66
2023/12/07 07:35:35;;;;;;;21.02;16.20;;;2.20;99.90;;;;;;4954996;28;20501;-68
2023/12/07 07:38:01;;;;;;;22.75;18.30;;;2.20;99.90;;;;;;4954814;28;20101;-67
2023/12/07 07:40:26;;;;;;;21.73;16.98;;;2.50;99.90;;;;;;4938759;28;20042;-66
2023/12/07 07:42:52;;;;;;;19.55;16.63;;;2.40;99.90;;;;;;4922221;28;20058;-66
2023/12/07 07:45:18;;;;;;;21.95;17.83;;;2.30;99.90;;;;;;4938243;28;20046;-66
2023/12/07 07:47:44;;;;;;;27.30;17.65;;;2.20;99.90;;;;;;4938126;28;20058;-67
2023/12/07 07:50:10;;;;;;;21.25;17.55;;;2.30;99.90;;;;;;4938132;28;20051;-67
2023/12/07 07:52:36;;;;;;;23.88;16.88;;;2.50;99.90;;;;;;4939051;28;20539;-66
2023/12/07 07:55:04;;;;;;;23.05;17.23;;;2.40;99.90;;;;;;4955188;28;20038;-67
2023/12/07 07:57:30;;;;;;;23.52;18.08;;;2.40;99.90;;;;;;4937628;28;20105;-67
2023/12/07 07:59:57;;;;;;;22.33;18.15;;;2.20;99.90;;;;;;4937198;28;20066;-67
2023/12/07 08:02:23;;;;;;;20.92;17.73;;;2.50;99.90;;;;;;4953024;28;20146;-67
2023/12/07 08:04:49;;;;;;;20.98;18.20;;;2.30;99.90;;;;;;4952802;28;20049;-68
2023/12/07 08:07:15;;;;;;;26.80;19.25;;;2.30;99.90;;;;;;4937663;28;20050;-67
2023/12/07 08:09:41;;;;;;;23.05;18.58;;;2.30;99.90;;;;;;4953421;28;20549;-67
2023/12/07 08:12:08;;;;;;;24.02;19.42;;;2.50;99.90;;;;;;4952120;28;20055;-67
2023/12/07 08:14:36;;;;;;;23.77;18.58;;;2.60;99.90;;;;;;4937288;28;20050;-67
2023/12/07 08:17:03;;;;;;;20.25;18.02;;;2.40;99.90;;;;;;4951460;28;20132;-67
2023/12/07 08:19:28;;;;;;;23.88;19.25;;;2.60;99.90;;;;;;4951831;28;20038;-68
2023/12/07 08:21:54;;;;;;;24.80;18.67;;;2.60;99.90;;;;;;4952997;28;20054;-67
2023/12/07 08:24:20;;;;;;;23.73;18.25;;;2.50;99.90;;;;;;4936437;28;20105;-67
2023/12/07 08:26:46;;;;;;;25.25;18.88;;;2.60;99.90;;;;;;4952000;28;20050;-67
2023/12/07 08:29:12;;;;;;;24.42;18.40;;;2.70;99.90;;;;;;4936456;28;20334;-67
2023/12/07 08:31:40;;;;;;;24.25;19.40;;;2.80;99.90;;;;;;4936213;28;20120;-67
2023/12/07 08:34:06;;;;;;;23.55;18.58;;;2.70;99.90;;;;;;4952086;28;20042;-67
2023/12/07 08:36:31;;;;;;;24.00;18.73;;;2.70;99.90;;;;;;4936862;28;20324;-67
2023/12/07 08:38:57;;;;;;;23.42;17.92;;;2.80;99.90;;;;;;4920002;28;20548;-68
2023/12/07 08:41:23;;;;;;;23.83;17.88;;;2.80;99.90;;;;;;4937760;28;20053;-67
2023/12/07 08:43:49;;;;;;;19.83;17.70;;;3.10;99.90;;;;;;4953218;28;20038;-68
2023/12/07 08:46:14;;;;;;;21.35;17.73;;;2.90;99.90;;;;;;4951944;28;20400;-67
2023/12/07 08:48:40;;;;;;;23.92;18.05;;;3.00;99.90;;;;;;4951978;28;20613;-67
2023/12/07 08:51:08;;;;;;;21.38;16.95;;;3.00;99.90;;;;;;4948213;28;20185;-67
2023/12/07 08:53:38;;;;;;;21.98;16.67;;;3.10;99.90;;;;;;4933789;28;20080;-67
2023/12/07 08:56:04;;;;;;;21.55;15.68;;;3.00;99.90;;;;;;4951337;28;20042;-67
2023/12/07 08:58:29;;;;;;;22.25;16.48;;;3.30;99.90;;;;;;4935683;28;20604;-67
2023/12/07 09:00:55;;;;;;;20.25;15.38;;;3.30;99.90;;;;;;4951515;28;20045;-68
2023/12/07 09:03:25;;;;;;;20.20;16.80;;;3.30;99.90;;;;;;4936541;28;20057;-67
2023/12/07 09:05:52;;;;;;;17.85;15.82;;;3.50;99.90;;;;;;4952468;28;20046;-67
2023/12/07 09:08:17;;;;;;;19.45;16.27;;;3.20;99.90;;;;;;4934968;28;20050;-67
2023/12/07 09:10:43;;;;;;;19.38;15.10;;;3.30;99.90;;;;;;4950992;28;20046;-67
2023/12/07 09:13:09;;;;;;;17.63;14.98;;;3.30;99.90;;;;;;4949652;28;20607;-67
2023/12/07 09:15:37;;;;;;;21.88;15.45;;;3.50;99.90;;;;;;4934613;28;20094;-67
2023/12/07 09:18:03;;;;;;;23.48;15.55;;;3.40;99.90;;;;;;4951061;28;20648;-67
2023/12/07 09:20:29;;;;;;;20.83;14.80;;;3.30;99.90;;;;;;4952409;28;20533;-67
2023/12/07 09:22:57;;;;;;;20.90;16.40;;;3.50;99.90;;;;;;4935020;28;20067;-67
2023/12/07 09:25:23;;;;;;;22.88;16.40;;;3.50;99.90;;;;;;4951310;28;20058;-68
2023/12/07 09:27:48;;;;;;;18.48;15.73;;;3.40;99.90;;;;;;4935065;28;20042;-67
2023/12/07 09:30:14;;;;;;;25.17;14.75;;;3.40;99.90;;;;;;4950537;28;20046;-67
2023/12/07 09:32:42;;;;;;;23.60;14.90;;;3.50;99.90;;;;;;4935131;28;20042;-67
2023/12/07 09:35:18;;;;;;;18.98;15.57;;;3.50;99.90;;;;;;4950982;28;20086;-68
2023/12/07 09:37:46;;;;;;;23.13;16.08;;;3.60;99.90;;;;;;4944546;28;21407;-67
2023/12/07 09:40:19;;;;;;;19.48;15.73;;;3.60;99.90;;;;;;4950277;28;20073;-68
2023/12/07 09:42:46;;;;;;;22.00;15.82;;;3.90;99.90;;;;;;4934734;28;20049;-67
2023/12/07 09:45:14;;;;;;;22.50;16.05;;;3.80;99.90;;;;;;4934426;28;20101;-67
2023/12/07 09:47:41;;;;;;;22.55;15.32;;;4.00;99.90;;;;;;4934513;28;20051;-67
2023/12/07 09:50:08;;;;;;;23.02;15.48;;;3.90;99.90;;;;;;4950896;28;20256;-68
2023/12/07 09:52:35;;;;;;;18.00;14.18;;;4.00;99.90;;;;;;4934244;28;20367;-67
2023/12/07 09:55:03;;;;;;;17.60;14.18;;;4.10;99.90;;;;;;4949871;28;20357;-67
2023/12/07 09:57:29;;;;;;;18.73;14.45;;;4.20;99.90;;;;;;4950628;28;20037;-68
2023/12/07 09:59:55;;;;;;;19.60;15.38;;;4.20;99.90;;;;;;4934386;28;20142;-68
2023/12/07 10:02:22;;;;;;;24.75;15.20;;;4.30;99.90;;;;;;4950728;28;20394;-68
2023/12/07 10:04:48;;;;;;;23.15;14.70;;;4.50;99.90;;;;;;4951768;28;20035;-67
2023/12/07 10:07:14;;;;;;;17.70;13.52;;;4.70;99.90;;;;;;4935370;28;20058;-68
2023/12/07 10:09:40;;;;;;;18.63;14.77;;;5.50;99.90;;;;;;4950597;28;20043;-67
2023/12/07 10:12:06;;;;;;;16.77;13.77;;;6.50;99.90;;;;;;4951804;28;20584;-68
2023/12/07 10:14:33;;;;;;;12.80;10.88;;;6.80;99.90;;;;;;4934966;28;20130;-68
2023/12/07 10:17:00;;;;;;;16.98;12.20;;;6.90;99.90;;;;;;4934718;28;20121;-68
2023/12/07 10:19:27;;;;;;;14.00;12.50;;;6.90;99.90;;;;;;4934875;28;20229;-68
2023/12/07 10:21:53;;;;;;;12.70;11.40;;;6.80;99.90;;;;;;4965138;28;20051;-67
2023/12/07 10:24:25;;;;;;;13.80;12.00;;;7.00;99.90;;;;;;4949307;28;20047;-68
2023/12/07 10:26:51;;;;;;;17.90;13.70;;;7.40;99.90;;;;;;4982110;28;20293;-68
2023/12/07 10:29:19;;;;;;;27.90;18.70;;;7.80;99.90;;;;;;4949658;28;20157;-68
2023/12/07 10:31:46;;;;;;;40.28;25.60;;;8.20;99.90;;;;;;4950122;28;20628;-67
2023/12/07 10:34:13;;;;;;;30.05;20.45;;;8.30;99.90;;;;;;4933109;28;20228;-68
2023/12/07 10:36:39;;;;;;;15.48;12.57;;;8.30;99.90;;;;;;4949572;28;20047;-68
2023/12/07 10:39:06;;;;;;;14.82;13.05;;;8.40;99.90;;;;;;4949950;28;20117;-68
2023/12/07 10:41:34;;;;;;;14.77;12.98;;;8.60;99.90;;;;;;4937384;28;20144;-68
2023/12/07 10:44:01;;;;;;;17.13;12.38;;;8.60;99.90;;;;;;4922645;28;20054;-69
2023/12/07 10:46:27;;;;;;;13.07;11.65;;;8.90;99.90;;;;;;4937893;28;20047;-67
2023/12/07 10:49:07;;;;;;;14.40;12.90;;;8.70;99.90;;;;;;4954397;28;20112;-67
2023/12/07 10:51:59;;;;;;;15.68;14.07;;;8.60;99.90;;;;;;4955565;28;20448;-66
2023/12/07 10:54:33;;;;;;;17.70;15.65;;;8.50;99.90;;;;;;4955163;28;20051;-66
2023/12/07 10:57:02;;;;;;;18.48;16.25;;;8.50;99.90;;;;;;4954950;28;20279;-67
2023/12/07 10:59:29;;;;;;;16.98;15.18;;;8.40;99.90;;;;;;4939946;28;20043;-66
2023/12/07 11:01:57;;;;;;;17.50;15.55;;;8.30;99.90;;;;;;4954942;28;20563;-67
2023/12/07 11:04:24;;;;;;;18.38;16.48;;;8.30;99.90;;;;;;4955236;28;20200;-65
2023/12/07 11:06:53;;;;;;;19.13;17.15;;;8.30;99.90;;;;;;4954638;28;20042;-66
2023/12/07 11:09:23;;;;;;;18.98;16.63;;;8.30;99.90;;;;;;4954513;28;20050;-65
2023/12/07 11:12:02;;;;;;;20.23;17.25;;;8.30;99.90;;;;;;4953752;28;20571;-68
2023/12/07 11:14:29;;;;;;;19.77;16.65;;;8.20;99.90;;;;;;4953260;28;20070;-66
2023/12/07 11:16:56;;;;;;;19.85;16.83;;;8.50;99.90;;;;;;4937128;28;20159;-65
2023/12/07 11:19:39;;;;;;;20.30;15.57;;;8.30;99.90;;;;;;4954129;28;20269;-66
2023/12/07 11:22:12;;;;;;;19.95;17.60;;;8.50;99.90;;;;;;4938674;28;20051;-66
2023/12/07 11:24:38;;;;;;;22.15;18.27;;;8.70;99.90;;;;;;4953081;28;20542;-68
2023/12/07 11:27:04;;;;;;;18.38;16.45;;;8.90;99.90;;;;;;4938272;28;20042;-66
2023/12/07 11:29:31;;;;;;;17.45;15.70;;;9.00;99.90;;;;;;4938651;28;20050;-66
2023/12/07 11:32:06;;;;;;;16.58;14.88;;;9.10;99.90;;;;;;4954495;28;20157;-66
2023/12/07 11:34:36;;;;;;;16.50;14.75;;;9.10;99.90;;;;;;4954616;28;20082;-68
2023/12/07 11:37:03;;;;;;;17.85;15.45;;;9.30;99.90;;;;;;4954590;28;20083;-66
2023/12/07 11:39:41;;;;;;;17.58;15.68;;;9.20;99.90;;;;;;4954210;28;20242;-68
2023/12/07 11:42:11;;;;;;;17.50;15.70;;;9.30;99.90;;;;;;4955423;28;20514;-68
2023/12/07 11:44:39;;;;;;;18.23;14.55;;;9.30;99.90;;;;;;4954080;28;20046;-67
2023/12/07 11:47:05;;;;;;;15.98;14.27;;;9.70;99.90;;;;;;4953921;28;20115;-67
2023/12/07 11:49:32;;;;;;;16.35;14.65;;;9.60;99.90;;;;;;4953484;28;20050;-67
2023/12/07 11:52:11;;;;;;;17.45;14.65;;;9.40;99.90;;;;;;4952949;28;20254;-68
2023/12/07 11:54:37;;;;;;;15.60;14.00;;;9.70;99.90;;;;;;4953378;28;20142;-67
2023/12/07 11:57:03;;;;;;;16.25;14.52;;;9.80;99.90;;;;;;4953533;28;20266;-67
2023/12/07 11:59:29;;;;;;;17.42;14.80;;;9.80;99.90;;;;;;4953673;28;20528;-68
2023/12/07 12:01:55;;;;;;;18.15;16.35;;;9.60;99.90;;;;;;4952619;28;20339;-67
2023/12/07 12:04:23;;;;;;;18.27;15.32;;;9.30;99.90;;;;;;4952398;28;20364;-67
2023/12/07 12:06:50;;;;;;;15.77;14.23;;;9.10;99.90;;;;;;4938140;28;20051;-67
2023/12/07 12:09:18;;;;;;;17.23;14.63;;;9.20;99.90;;;;;;4906234;28;20042;-67
2023/12/07 12:11:46;;;;;;;19.05;13.80;;;9.10;99.90;;;;;;4953623;28;20066;-67
2023/12/07 12:14:14;;;;;;;19.60;14.73;;;8.90;99.90;;;;;;4953219;28;20085;-67
2023/12/07 12:16:40;;;;;;;19.05;16.88;;;8.90;99.90;;;;;;4953911;28;20057;-67
2023/12/07 12:19:06;;;;;;;19.35;15.65;;;8.70;99.90;;;;;;4937323;28;20482;-68
2023/12/07 12:21:41;;;;;;;17.15;15.25;;;8.90;99.90;;;;;;4952417;28;20293;-67
2023/12/07 12:24:07;;;;;;;17.15;15.18;;;8.90;99.90;;;;;;4953657;28;20378;-67
2023/12/07 12:26:34;;;;;;;18.40;15.25;;;8.50;99.90;;;;;;4953926;28;20051;-67
2023/12/07 12:29:02;;;;;;;17.52;15.55;;;8.30;99.90;;;;;;4937759;28;20106;-67
2023/12/07 12:31:28;;;;;;;17.40;15.52;;;8.10;99.90;;;;;;4937899;28;20433;-67
2023/12/07 12:33:54;;;;;;;20.67;17.35;;;7.70;99.90;;;;;;4953715;28;20109;-67